createdAt,value
2023-02-06T00:03:34.530Z,67.22
2023-02-06T00:08:35.758Z,67.71
2023-02-06T00:13:36.951Z,67.37
2023-02-06T00:18:38.207Z,67.01
2023-02-06T00:23:39.427Z,67.22
2023-02-06T00:28:40.707Z,67.70
2023-02-06T00:33:41.943Z,67.25
2023-02-06T00:38:43.224Z,67.48
2023-02-06T00:43:44.559Z,67.86
2023-02-06T00:48:45.778Z,67.77
2023-02-06T00:53:48.601Z,67.89
2023-02-06T00:58:51.444Z,68.18
2023-02-06T01:03:52.668Z,67.95
2023-02-06T01:08:53.897Z,67.78
2023-02-06T01:13:55.119Z,68.52
2023-02-06T01:18:56.424Z,68.59
2023-02-06T01:23:57.706Z,68.29
2023-02-06T01:28:58.947Z,67.91
2023-02-06T01:34:00.665Z,69.68
2023-02-06T01:39:01.870Z,69.93
2023-02-06T01:44:03.139Z,69.44
2023-02-06T01:49:06.715Z,69.13
2023-02-06T01:54:08.313Z,68.81
2023-02-06T01:59:09.562Z,68.04
2023-02-06T02:04:10.820Z,68.35
2023-02-06T02:09:13.586Z,68.47
2023-02-06T02:14:15.667Z,67.52
2023-02-06T02:19:16.951Z,67.88
2023-02-06T02:24:18.201Z,68.03
2023-02-06T02:29:19.404Z,67.47
2023-02-06T02:34:20.615Z,67.67
2023-02-06T02:39:22.110Z,67.55
2023-02-06T02:44:23.340Z,67.16
2023-02-06T02:49:24.588Z,66.94
2023-02-06T02:54:26.405Z,66.55
2023-02-06T02:59:27.668Z,66.80
2023-02-06T03:04:28.882Z,69.58
2023-02-06T03:09:30.108Z,69.57
2023-02-06T03:14:31.339Z,68.91
2023-02-06T03:19:32.626Z,68.34
2023-02-06T03:24:34.172Z,68.64
2023-02-06T03:29:35.415Z,68.06
2023-02-06T03:34:36.664Z,67.50
2023-02-06T03:39:37.919Z,67.54
2023-02-06T03:44:39.386Z,67.39
2023-02-06T03:49:40.628Z,67.56
2023-02-06T03:54:41.886Z,68.76
2023-02-06T03:59:43.109Z,68.14
2023-02-06T04:04:44.336Z,69.02
2023-02-06T04:09:46.532Z,69.32
2023-02-06T04:14:47.838Z,69.30
2023-02-06T04:19:49.070Z,69.06
2023-02-06T04:24:50.267Z,68.88
2023-02-06T04:29:51.488Z,68.87
2023-02-06T04:34:52.706Z,69.02
2023-02-06T04:39:53.968Z,69.83
2023-02-06T04:44:55.191Z,69.08
2023-02-06T04:49:56.431Z,68.35
2023-02-06T04:54:57.645Z,68.27
2023-02-06T04:59:58.858Z,67.57
2023-02-06T05:05:00.143Z,67.95
2023-02-06T05:10:01.454Z,67.70
2023-02-06T05:15:02.697Z,66.81
2023-02-06T05:20:03.960Z,66.89
2023-02-06T05:25:05.209Z,68.06
2023-02-06T05:30:06.569Z,68.13
2023-02-06T05:35:07.835Z,67.38
2023-02-06T05:40:09.082Z,68.33
2023-02-06T05:45:10.326Z,68.53
2023-02-06T05:50:11.601Z,68.22
2023-02-06T05:55:12.988Z,67.86
2023-02-06T06:00:14.225Z,67.88
2023-02-06T06:05:33.855Z,66.45
2023-02-06T06:10:35.350Z,67.12
2023-02-06T06:15:36.945Z,66.87
2023-02-06T06:20:38.420Z,67.69
2023-02-06T06:25:39.680Z,67.72
2023-02-06T06:30:40.981Z,66.94
2023-02-06T06:35:42.283Z,67.78
2023-02-06T06:40:43.684Z,67.49
2023-02-06T06:45:44.953Z,66.74
2023-02-06T06:50:46.202Z,66.67
2023-02-06T06:55:47.448Z,66.60
2023-02-06T07:00:48.751Z,66.42
2023-02-06T07:05:51.782Z,67.04
2023-02-06T07:10:54.354Z,67.95
2023-02-06T07:15:55.743Z,71.83
2023-02-06T07:20:57.055Z,72.90
2023-02-06T07:26:02.396Z,71.65
2023-02-06T07:31:03.764Z,71.67
2023-02-06T07:36:05.024Z,73.50
2023-02-06T07:41:06.295Z,73.44
2023-02-06T07:46:07.555Z,72.11
2023-02-06T07:51:08.835Z,73.71
2023-02-06T07:56:10.100Z,73.93
2023-02-06T08:01:11.461Z,74.90
2023-02-06T08:06:12.739Z,74.18
2023-02-06T08:11:15.020Z,75.09
2023-02-06T08:16:16.309Z,74.67
2023-02-06T08:21:17.582Z,75.38
2023-02-06T08:26:18.869Z,74.01
2023-02-06T08:31:20.201Z,73.81
2023-02-06T08:36:21.567Z,74.55
2023-02-06T08:41:22.875Z,74.17
2023-02-06T08:46:24.316Z,75.33
2023-02-06T08:51:28.609Z,75.70
2023-02-06T08:56:29.839Z,74.76
2023-02-06T09:01:31.083Z,74.89
2023-02-06T09:06:32.341Z,72.45
2023-02-06T09:11:33.620Z,72.33
2023-02-06T09:16:34.955Z,72.50
2023-02-06T09:21:36.173Z,73.75
2023-02-06T09:26:44.838Z,72.90
2023-02-06T09:31:51.631Z,72.14
2023-02-06T09:36:54.834Z,72.85
2023-02-06T09:41:56.201Z,71.38
2023-02-06T09:46:57.420Z,71.67
2023-02-06T09:51:58.672Z,69.87
2023-02-06T09:56:59.943Z,71.31
2023-02-06T10:02:01.242Z,70.80
2023-02-06T10:07:02.619Z,70.37
2023-02-06T10:12:03.850Z,70.82
2023-02-06T10:17:05.132Z,70.42
2023-02-06T10:22:06.388Z,70.63
2023-02-06T10:27:07.922Z,70.57
2023-02-06T10:32:09.469Z,68.40
2023-02-06T10:37:11.108Z,67.68
2023-02-06T10:42:12.323Z,66.85
2023-02-06T10:47:13.527Z,65.88
2023-02-06T10:52:14.734Z,64.83
2023-02-06T10:57:16.112Z,62.89
2023-02-06T11:02:17.492Z,59.44
2023-02-06T11:07:20.688Z,60.93
2023-02-06T11:12:21.960Z,62.37
2023-02-06T11:17:23.683Z,59.49
2023-02-06T11:22:24.917Z,59.71
2023-02-06T11:27:26.174Z,57.72
2023-02-06T11:32:27.424Z,55.28
2023-02-06T11:37:31.164Z,54.51
2023-02-06T11:42:34.995Z,56.61
2023-02-06T11:47:37.904Z,57.43
2023-02-06T11:52:39.389Z,57.32
2023-02-06T11:57:40.794Z,57.87
2023-02-06T12:02:42.056Z,57.20
2023-02-06T12:07:43.335Z,57.08
2023-02-06T12:12:44.606Z,57.50
2023-02-06T12:17:45.829Z,57.03
2023-02-06T12:22:47.039Z,56.36
2023-02-06T12:27:48.276Z,56.92
2023-02-06T12:32:49.568Z,57.36
2023-02-06T12:37:50.847Z,58.66
2023-02-06T12:42:52.094Z,57.99
2023-02-06T12:47:53.494Z,58.56
2023-02-06T12:52:54.775Z,57.56
2023-02-06T12:57:56.180Z,58.10
2023-02-06T13:02:57.449Z,58.30
2023-02-06T13:07:58.828Z,59.01
2023-02-06T13:13:00.123Z,59.67
2023-02-06T13:18:01.394Z,58.59
2023-02-06T13:23:03.795Z,58.51
2023-02-06T13:28:06.154Z,58.15
2023-02-06T13:33:07.421Z,58.98
2023-02-06T13:38:08.681Z,61.94
2023-02-06T13:43:10.237Z,62.00
2023-02-06T13:48:11.528Z,61.94
2023-02-06T13:53:12.781Z,60.88
2023-02-06T13:58:14.077Z,60.94
2023-02-06T14:03:15.366Z,62.45
2023-02-06T14:08:16.764Z,63.23
2023-02-06T14:13:18.050Z,63.56
2023-02-06T14:18:19.331Z,63.52
2023-02-06T14:23:20.572Z,63.45
2023-02-06T14:28:21.861Z,65.32
2023-02-06T14:33:23.208Z,66.49
2023-02-06T14:38:24.506Z,65.57
2023-02-06T14:43:25.752Z,65.73
2023-02-06T14:48:26.972Z,67.16
2023-02-06T14:53:28.255Z,68.34
2023-02-06T14:58:29.520Z,68.97
2023-02-06T15:03:30.810Z,68.64
2023-02-06T15:08:33.181Z,67.73
2023-02-06T15:13:34.853Z,67.54
2023-02-06T15:18:36.161Z,67.29
2023-02-06T15:23:37.392Z,68.37
2023-02-06T15:28:38.649Z,68.76
2023-02-06T15:33:40.038Z,68.41
2023-02-06T15:38:43.290Z,68.42
2023-02-06T15:43:46.722Z,68.00
2023-02-06T15:48:48.961Z,68.79
2023-02-06T15:53:51.486Z,69.06
2023-02-06T15:58:52.784Z,69.01
2023-02-06T16:03:54.103Z,69.21
2023-02-06T16:08:55.341Z,71.69
2023-02-06T16:13:56.591Z,71.97
2023-02-06T16:18:58.573Z,73.67
2023-02-06T16:24:00.165Z,73.37
2023-02-06T16:29:01.445Z,74.94
2023-02-06T16:34:05.813Z,74.39
2023-02-06T16:39:07.163Z,74.05
2023-02-06T16:44:10.844Z,74.08
2023-02-06T16:49:12.814Z,76.06
2023-02-06T16:54:14.074Z,74.54
2023-02-06T16:59:15.460Z,73.78
2023-02-06T17:04:16.788Z,72.75
2023-02-06T17:09:18.279Z,71.95
2023-02-06T17:14:20.019Z,72.87
2023-02-06T17:19:22.102Z,72.59
2023-02-06T17:24:23.342Z,71.20
2023-02-06T17:29:25.249Z,70.63
2023-02-06T17:34:26.857Z,70.40
2023-02-06T17:39:30.351Z,70.07
2023-02-06T17:44:31.634Z,69.80
2023-02-06T17:49:33.159Z,69.97
2023-02-06T17:54:34.492Z,69.42
2023-02-06T17:59:35.757Z,70.38
2023-02-06T18:04:37.337Z,70.26
2023-02-06T18:09:41.062Z,69.67
2023-02-06T18:14:43.251Z,68.95
2023-02-06T18:19:46.537Z,69.03
2023-02-06T18:24:52.753Z,69.29
2023-02-06T18:29:55.186Z,69.16
2023-02-06T18:34:56.441Z,69.26
2023-02-06T18:39:57.774Z,68.91
2023-02-06T18:44:59.049Z,69.14
2023-02-06T18:50:00.387Z,69.55
2023-02-06T18:55:01.680Z,69.62
2023-02-06T19:00:03.039Z,69.15
2023-02-06T19:05:04.351Z,68.54
2023-02-06T19:10:05.613Z,69.03
2023-02-06T19:15:08.898Z,68.82
2023-02-06T19:20:10.206Z,68.33
2023-02-06T19:25:14.041Z,67.90
2023-02-06T19:30:15.661Z,68.21
2023-02-06T19:35:17.351Z,68.03
2023-02-06T19:40:19.548Z,67.29
2023-02-06T19:45:20.831Z,66.94
2023-02-06T19:50:22.104Z,67.68
2023-02-06T19:55:23.312Z,68.97
2023-02-06T20:00:24.529Z,70.18
2023-02-06T20:05:27.104Z,69.35
2023-02-06T20:10:28.573Z,68.98
2023-02-06T20:15:31.978Z,68.54
2023-02-06T20:20:33.217Z,68.58
2023-02-06T20:25:34.459Z,67.45
2023-02-06T20:30:36.310Z,66.65
2023-02-06T20:35:37.922Z,66.04
2023-02-06T20:40:43.698Z,66.17
2023-02-06T20:45:45.222Z,65.92
2023-02-06T20:50:46.527Z,66.44
2023-02-06T20:55:47.816Z,67.72
2023-02-06T21:00:50.203Z,67.29
2023-02-06T21:05:54.554Z,67.85
2023-02-06T21:10:56.133Z,68.14
2023-02-06T21:15:57.895Z,67.72
2023-02-06T21:21:06.363Z,68.23
2023-02-06T21:26:17.194Z,67.98
2023-02-06T21:31:18.728Z,67.57
2023-02-06T21:36:22.505Z,67.92
2023-02-06T21:41:26.969Z,67.92
2023-02-06T21:46:30.904Z,67.70
2023-02-06T21:51:40.153Z,68.21
2023-02-06T21:56:41.452Z,68.00
2023-02-06T22:01:42.882Z,67.91
2023-02-06T22:06:44.154Z,68.50
2023-02-06T22:11:45.481Z,68.71
2023-02-06T22:16:46.903Z,68.61
2023-02-06T22:21:48.462Z,68.17
2023-02-06T22:26:49.725Z,67.90
2023-02-06T22:31:51.139Z,68.25
2023-02-06T22:36:52.528Z,68.60
2023-02-06T22:41:53.807Z,68.99
2023-02-06T22:46:55.401Z,67.55
2023-02-06T22:51:58.671Z,67.89
2023-02-06T22:56:59.903Z,66.72
2023-02-06T23:02:01.312Z,67.19
2023-02-06T23:07:02.576Z,66.77
2023-02-06T23:12:10.279Z,66.22
2023-02-06T23:17:11.615Z,67.40
2023-02-06T23:22:13.351Z,67.49
2023-02-06T23:27:14.627Z,67.11
2023-02-06T23:32:15.916Z,66.98
2023-02-06T23:37:17.139Z,67.23
2023-02-06T23:42:18.423Z,66.93
2023-02-06T23:47:19.646Z,66.66
2023-02-06T23:52:20.921Z,66.35
2023-02-06T23:57:23.062Z,66.02
